sensor_id;sensor_type;location;lat;lon;timestamp;temperature;humidity
41471;DHT22;27211;51.220;5.308;2023-04-03T00:00:46;4.40;99.90
41471;DHT22;27211;51.220;5.308;2023-04-03T00:03:32;4.30;99.90
41471;DHT22;27211;51.220;5.308;2023-04-03T00:06:17;4.30;99.90
41471;DHT22;27211;51.220;5.308;2023-04-03T00:09:03;4.20;99.90
41471;DHT22;27211;51.220;5.308;2023-04-03T00:11:49;4.10;99.90
41471;DHT22;27211;51.220;5.308;2023-04-03T00:14:35;4.10;99.90
41471;DHT22;27211;51.220;5.308;2023-04-03T00:17:21;4.00;99.90
41471;DHT22;27211;51.220;5.308;2023-04-03T00:20:07;4.00;99.90
41471;DHT22;27211;51.220;5.308;2023-04-03T00:22:52;3.90;99.90
41471;DHT22;27211;51.220;5.308;2023-04-03T00:25:38;3.90;99.90
41471;DHT22;27211;51.220;5.308;2023-04-03T00:28:23;4.00;99.90
41471;DHT22;27211;51.220;5.308;2023-04-03T00:31:09;3.90;99.90
41471;DHT22;27211;51.220;5.308;2023-04-03T00:33:54;3.80;99.90
41471;DHT22;27211;51.220;5.308;2023-04-03T00:36:40;3.80;99.90
41471;DHT22;27211;51.220;5.308;2023-04-03T00:39:26;3.70;99.90
41471;DHT22;27211;51.220;5.308;2023-04-03T00:42:11;3.60;99.90
41471;DHT22;27211;51.220;5.308;2023-04-03T00:47:22;3.50;99.90
41471;DHT22;27211;51.220;5.308;2023-04-03T00:50:08;3.40;99.90
41471;DHT22;27211;51.220;5.308;2023-04-03T00:52:53;3.40;99.90
41471;DHT22;27211;51.220;5.308;2023-04-03T00:55:39;3.40;99.90
41471;DHT22;27211;51.220;5.308;2023-04-03T00:58:30;3.40;99.90
41471;DHT22;27211;51.220;5.308;2023-04-03T01:01:14;3.50;99.90
41471;DHT22;27211;51.220;5.308;2023-04-03T01:04:00;3.50;99.90
41471;DHT22;27211;51.220;5.308;2023-04-03T01:06:45;3.60;99.90
41471;DHT22;27211;51.220;5.308;2023-04-03T01:09:31;3.50;99.90
41471;DHT22;27211;51.220;5.308;2023-04-03T01:12:18;3.30;99.90
41471;DHT22;27211;51.220;5.308;2023-04-03T01:15:13;3.20;99.90
41471;DHT22;27211;51.220;5.308;2023-04-03T01:17:50;3.20;99.90
41471;DHT22;27211;51.220;5.308;2023-04-03T01:25:34;3.00;99.90
41471;DHT22;27211;51.220;5.308;2023-04-03T01:28:21;3.00;99.90
41471;DHT22;27211;51.220;5.308;2023-04-03T01:33:31;3.10;99.90
41471;DHT22;27211;51.220;5.308;2023-04-03T01:36:23;3.10;99.90
41471;DHT22;27211;51.220;5.308;2023-04-03T01:39:05;3.10;99.90
41471;DHT22;27211;51.220;5.308;2023-04-03T01:41:50;3.00;99.90
41471;DHT22;27211;51.220;5.308;2023-04-03T01:44:36;3.10;99.90
41471;DHT22;27211;51.220;5.308;2023-04-03T01:47:22;2.90;99.90
41471;DHT22;27211;51.220;5.308;2023-04-03T01:50:07;3.00;99.90
41471;DHT22;27211;51.220;5.308;2023-04-03T01:52:53;2.90;99.90
41471;DHT22;27211;51.220;5.308;2023-04-03T01:55:38;2.80;99.90
41471;DHT22;27211;51.220;5.308;2023-04-03T01:58:24;2.90;99.90
41471;DHT22;27211;51.220;5.308;2023-04-03T02:01:10;2.90;99.90
41471;DHT22;27211;51.220;5.308;2023-04-03T02:04:02;2.90;99.90
41471;DHT22;27211;51.220;5.308;2023-04-03T02:06:48;2.90;99.90
41471;DHT22;27211;51.220;5.308;2023-04-03T02:09:33;3.00;99.90
41471;DHT22;27211;51.220;5.308;2023-04-03T02:12:19;2.90;99.90
41471;DHT22;27211;51.220;5.308;2023-04-03T02:15:07;3.00;99.90
41471;DHT22;27211;51.220;5.308;2023-04-03T02:17:53;3.00;99.90
41471;DHT22;27211;51.220;5.308;2023-04-03T02:20:39;2.90;99.90
41471;DHT22;27211;51.220;5.308;2023-04-03T02:23:28;2.90;99.90
41471;DHT22;27211;51.220;5.308;2023-04-03T02:26:14;2.90;99.90
41471;DHT22;27211;51.220;5.308;2023-04-03T02:28:59;3.00;99.90
41471;DHT22;27211;51.220;5.308;2023-04-03T02:31:45;2.90;99.90
41471;DHT22;27211;51.220;5.308;2023-04-03T02:34:31;2.80;99.90
41471;DHT22;27211;51.220;5.308;2023-04-03T02:37:16;2.90;99.90
41471;DHT22;27211;51.220;5.308;2023-04-03T02:40:06;3.00;99.90
41471;DHT22;27211;51.220;5.308;2023-04-03T02:42:53;3.00;99.90
41471;DHT22;27211;51.220;5.308;2023-04-03T02:45:38;3.00;99.90
41471;DHT22;27211;51.220;5.308;2023-04-03T02:48:24;2.90;99.90
41471;DHT22;27211;51.220;5.308;2023-04-03T02:51:09;2.90;99.90
41471;DHT22;27211;51.220;5.308;2023-04-03T02:53:58;2.90;99.90
41471;DHT22;27211;51.220;5.308;2023-04-03T02:56:43;2.90;99.90
41471;DHT22;27211;51.220;5.308;2023-04-03T02:59:29;2.80;99.90
41471;DHT22;27211;51.220;5.308;2023-04-03T03:02:17;2.80;99.90
41471;DHT22;27211;51.220;5.308;2023-04-03T03:05:00;2.80;99.90
41471;DHT22;27211;51.220;5.308;2023-04-03T03:07:51;2.70;99.90
41471;DHT22;27211;51.220;5.308;2023-04-03T03:10:34;2.80;99.90
41471;DHT22;27211;51.220;5.308;2023-04-03T03:13:20;2.80;99.90
41471;DHT22;27211;51.220;5.308;2023-04-03T03:16:08;2.80;99.90
41471;DHT22;27211;51.220;5.308;2023-04-03T03:18:53;2.80;99.90
41471;DHT22;27211;51.220;5.308;2023-04-03T03:21:39;2.70;99.90
41471;DHT22;27211;51.220;5.308;2023-04-03T03:24:24;2.60;99.90
41471;DHT22;27211;51.220;5.308;2023-04-03T03:27:10;2.60;99.90
41471;DHT22;27211;51.220;5.308;2023-04-03T03:29:58;2.60;99.90
41471;DHT22;27211;51.220;5.308;2023-04-03T03:32:43;2.50;99.90
41471;DHT22;27211;51.220;5.308;2023-04-03T03:35:29;2.40;99.90
41471;DHT22;27211;51.220;5.308;2023-04-03T03:38:14;2.50;99.90
41471;DHT22;27211;51.220;5.308;2023-04-03T03:40:59;2.50;99.90
41471;DHT22;27211;51.220;5.308;2023-04-03T03:43:45;2.50;99.90
41471;DHT22;27211;51.220;5.308;2023-04-03T03:46:31;2.50;99.90
41471;DHT22;27211;51.220;5.308;2023-04-03T03:49:16;2.50;99.90
41471;DHT22;27211;51.220;5.308;2023-04-03T03:52:02;2.50;99.90
41471;DHT22;27211;51.220;5.308;2023-04-03T03:54:51;2.60;99.90
41471;DHT22;27211;51.220;5.308;2023-04-03T03:57:47;2.60;99.90
41471;DHT22;27211;51.220;5.308;2023-04-03T04:00:40;2.50;99.90
41471;DHT22;27211;51.220;5.308;2023-04-03T04:03:18;2.60;99.90
41471;DHT22;27211;51.220;5.308;2023-04-03T04:06:07;2.60;99.90
41471;DHT22;27211;51.220;5.308;2023-04-03T04:08:53;2.50;99.90
41471;DHT22;27211;51.220;5.308;2023-04-03T04:11:41;2.50;99.90
41471;DHT22;27211;51.220;5.308;2023-04-03T04:14:24;2.60;99.90
41471;DHT22;27211;51.220;5.308;2023-04-03T04:17:12;2.60;99.90
41471;DHT22;27211;51.220;5.308;2023-04-03T04:20:02;2.50;99.90
41471;DHT22;27211;51.220;5.308;2023-04-03T04:22:49;2.40;99.90
41471;DHT22;27211;51.220;5.308;2023-04-03T04:25:44;2.30;99.90
41471;DHT22;27211;51.220;5.308;2023-04-03T04:28:27;2.30;99.90
41471;DHT22;27211;51.220;5.308;2023-04-03T04:31:13;2.30;99.90
41471;DHT22;27211;51.220;5.308;2023-04-03T04:33:58;2.40;99.90
41471;DHT22;27211;51.220;5.308;2023-04-03T04:36:46;2.40;99.90
41471;DHT22;27211;51.220;5.308;2023-04-03T04:39:29;2.40;99.90
41471;DHT22;27211;51.220;5.308;2023-04-03T04:42:15;2.40;99.90
41471;DHT22;27211;51.220;5.308;2023-04-03T04:45:00;2.50;99.90
41471;DHT22;27211;51.220;5.308;2023-04-03T04:47:46;2.50;99.90
41471;DHT22;27211;51.220;5.308;2023-04-03T04:50:31;2.40;99.90
41471;DHT22;27211;51.220;5.308;2023-04-03T04:53:17;2.40;99.90
41471;DHT22;27211;51.220;5.308;2023-04-03T04:56:22;2.40;99.90
41471;DHT22;27211;51.220;5.308;2023-04-03T04:59:08;2.40;99.90
41471;DHT22;27211;51.220;5.308;2023-04-03T05:01:56;2.40;99.90
41471;DHT22;27211;51.220;5.308;2023-04-03T05:04:39;2.40;99.90
41471;DHT22;27211;51.220;5.308;2023-04-03T05:07:32;2.20;99.90
41471;DHT22;27211;51.220;5.308;2023-04-03T05:10:12;2.30;99.90
41471;DHT22;27211;51.220;5.308;2023-04-03T05:13:10;2.30;99.90
41471;DHT22;27211;51.220;5.308;2023-04-03T05:15:57;2.40;99.90
41471;DHT22;27211;51.220;5.308;2023-04-03T05:18:42;2.30;99.90
41471;DHT22;27211;51.220;5.308;2023-04-03T05:21:32;2.20;99.90
41471;DHT22;27211;51.220;5.308;2023-04-03T05:24:17;2.20;99.90
41471;DHT22;27211;51.220;5.308;2023-04-03T05:27:02;2.20;99.90
41471;DHT22;27211;51.220;5.308;2023-04-03T05:29:53;2.30;99.90
41471;DHT22;27211;51.220;5.308;2023-04-03T05:32:39;2.50;99.90
41471;DHT22;27211;51.220;5.308;2023-04-03T05:35:24;2.70;99.90
41471;DHT22;27211;51.220;5.308;2023-04-03T05:38:10;2.60;99.90
41471;DHT22;27211;51.220;5.308;2023-04-03T05:40:55;2.60;99.90
41471;DHT22;27211;51.220;5.308;2023-04-03T05:43:41;2.50;99.90
41471;DHT22;27211;51.220;5.308;2023-04-03T05:46:26;2.70;99.90
41471;DHT22;27211;51.220;5.308;2023-04-03T05:49:12;2.80;99.90
41471;DHT22;27211;51.220;5.308;2023-04-03T05:51:58;2.80;99.90
41471;DHT22;27211;51.220;5.308;2023-04-03T05:54:43;2.80;99.90
41471;DHT22;27211;51.220;5.308;2023-04-03T05:57:29;2.90;99.90
41471;DHT22;27211;51.220;5.308;2023-04-03T06:00:15;3.00;99.90
41471;DHT22;27211;51.220;5.308;2023-04-03T06:03:00;3.20;99.90
41471;DHT22;27211;51.220;5.308;2023-04-03T06:05:46;3.40;99.90
41471;DHT22;27211;51.220;5.308;2023-04-03T06:08:33;3.50;99.90
41471;DHT22;27211;51.220;5.308;2023-04-03T06:11:19;4.20;99.90
41471;DHT22;27211;51.220;5.308;2023-04-03T06:14:04;4.80;99.90
41471;DHT22;27211;51.220;5.308;2023-04-03T06:16:51;5.20;99.90
41471;DHT22;27211;51.220;5.308;2023-04-03T06:19:37;5.40;99.90
41471;DHT22;27211;51.220;5.308;2023-04-03T06:22:23;5.50;99.90
41471;DHT22;27211;51.220;5.308;2023-04-03T06:25:09;5.80;99.90
41471;DHT22;27211;51.220;5.308;2023-04-03T06:27:54;5.90;99.90
41471;DHT22;27211;51.220;5.308;2023-04-03T06:30:40;6.20;99.90
41471;DHT22;27211;51.220;5.308;2023-04-03T06:33:25;6.30;99.90
41471;DHT22;27211;51.220;5.308;2023-04-03T06:36:11;6.60;99.90
41471;DHT22;27211;51.220;5.308;2023-04-03T06:38:57;7.00;99.90
41471;DHT22;27211;51.220;5.308;2023-04-03T06:41:42;7.10;99.90
41471;DHT22;27211;51.220;5.308;2023-04-03T06:44:27;7.20;99.90
41471;DHT22;27211;51.220;5.308;2023-04-03T06:47:13;7.20;99.90
41471;DHT22;27211;51.220;5.308;2023-04-03T06:49:58;7.20;99.90
41471;DHT22;27211;51.220;5.308;2023-04-03T06:52:44;7.60;99.90
41471;DHT22;27211;51.220;5.308;2023-04-03T06:55:29;7.80;99.90
41471;DHT22;27211;51.220;5.308;2023-04-03T06:58:15;8.00;99.90
41471;DHT22;27211;51.220;5.308;2023-04-03T07:01:01;7.90;99.90
41471;DHT22;27211;51.220;5.308;2023-04-03T07:03:47;7.90;99.90
41471;DHT22;27211;51.220;5.308;2023-04-03T07:06:33;8.30;99.90
41471;DHT22;27211;51.220;5.308;2023-04-03T07:09:18;8.40;99.90
41471;DHT22;27211;51.220;5.308;2023-04-03T07:12:04;8.10;99.90
41471;DHT22;27211;51.220;5.308;2023-04-03T07:14:50;8.00;99.90
41471;DHT22;27211;51.220;5.308;2023-04-03T07:17:37;8.50;99.90
41471;DHT22;27211;51.220;5.308;2023-04-03T07:20:23;8.90;99.90
41471;DHT22;27211;51.220;5.308;2023-04-03T07:23:09;9.10;99.90
41471;DHT22;27211;51.220;5.308;2023-04-03T07:25:55;9.40;99.90
41471;DHT22;27211;51.220;5.308;2023-04-03T07:28:40;9.30;99.90
41471;DHT22;27211;51.220;5.308;2023-04-03T07:31:26;9.40;99.90
41471;DHT22;27211;51.220;5.308;2023-04-03T07:34:12;9.60;99.90
41471;DHT22;27211;51.220;5.308;2023-04-03T07:36:58;9.90;99.90
41471;DHT22;27211;51.220;5.308;2023-04-03T07:39:44;9.90;99.90
41471;DHT22;27211;51.220;5.308;2023-04-03T07:42:29;9.60;99.90
41471;DHT22;27211;51.220;5.308;2023-04-03T07:45:15;9.30;99.90
41471;DHT22;27211;51.220;5.308;2023-04-03T07:48:01;9.30;99.90
41471;DHT22;27211;51.220;5.308;2023-04-03T07:50:46;9.70;99.90
41471;DHT22;27211;51.220;5.308;2023-04-03T07:53:32;10.40;99.90
41471;DHT22;27211;51.220;5.308;2023-04-03T07:56:17;10.60;99.90
41471;DHT22;27211;51.220;5.308;2023-04-03T07:59:03;10.90;99.90
41471;DHT22;27211;51.220;5.308;2023-04-03T08:01:49;10.00;99.90
41471;DHT22;27211;51.220;5.308;2023-04-03T08:04:34;10.80;99.90
41471;DHT22;27211;51.220;5.308;2023-04-03T08:07:20;11.40;99.90
41471;DHT22;27211;51.220;5.308;2023-04-03T08:10:06;11.40;99.90
41471;DHT22;27211;51.220;5.308;2023-04-03T08:12:52;11.20;99.90
41471;DHT22;27211;51.220;5.308;2023-04-03T08:15:37;11.60;99.60
41471;DHT22;27211;51.220;5.308;2023-04-03T08:18:24;11.60;99.70
41471;DHT22;27211;51.220;5.308;2023-04-03T08:21:10;12.70;98.50
41471;DHT22;27211;51.220;5.308;2023-04-03T08:23:55;13.40;97.20
41471;DHT22;27211;51.220;5.308;2023-04-03T08:26:41;12.90;96.60
41471;DHT22;27211;51.220;5.308;2023-04-03T08:29:26;13.00;96.90
41471;DHT22;27211;51.220;5.308;2023-04-03T08:32:12;13.80;96.10
41471;DHT22;27211;51.220;5.308;2023-04-03T08:34:57;13.90;94.90
41471;DHT22;27211;51.220;5.308;2023-04-03T08:37:43;14.30;94.60
41471;DHT22;27211;51.220;5.308;2023-04-03T08:40:28;13.80;94.40
41471;DHT22;27211;51.220;5.308;2023-04-03T08:43:28;14.80;93.40
41471;DHT22;27211;51.220;5.308;2023-04-03T08:46:10;14.70;93.50
41471;DHT22;27211;51.220;5.308;2023-04-03T08:48:55;14.80;93.10
41471;DHT22;27211;51.220;5.308;2023-04-03T08:51:41;15.10;91.80
41471;DHT22;27211;51.220;5.308;2023-04-03T08:54:33;14.70;91.30
41471;DHT22;27211;51.220;5.308;2023-04-03T08:57:16;14.50;92.00
41471;DHT22;27211;51.220;5.308;2023-04-03T09:02:41;14.00;93.00
41471;DHT22;27211;51.220;5.308;2023-04-03T09:05:35;14.70;92.30
41471;DHT22;27211;51.220;5.308;2023-04-03T09:08:27;15.20;90.60
41471;DHT22;27211;51.220;5.308;2023-04-03T09:11:23;15.40;89.70
41471;DHT22;27211;51.220;5.308;2023-04-03T09:16:36;15.80;87.60
41471;DHT22;27211;51.220;5.308;2023-04-03T09:22:07;15.60;82.40
41471;DHT22;27211;51.220;5.308;2023-04-03T09:24:50;16.30;81.10
41471;DHT22;27211;51.220;5.308;2023-04-03T09:27:33;16.40;81.10
41471;DHT22;27211;51.220;5.308;2023-04-03T09:30:22;16.60;77.20
41471;DHT22;27211;51.220;5.308;2023-04-03T09:33:04;16.80;74.70
41471;DHT22;27211;51.220;5.308;2023-04-03T09:35:49;16.40;73.90
41471;DHT22;27211;51.220;5.308;2023-04-03T09:38:35;17.00;72.60
41471;DHT22;27211;51.220;5.308;2023-04-03T09:41:21;17.00;66.30
41471;DHT22;27211;51.220;5.308;2023-04-03T09:44:20;16.90;67.70
41471;DHT22;27211;51.220;5.308;2023-04-03T09:47:19;16.70;66.20
41471;DHT22;27211;51.220;5.308;2023-04-03T09:52:46;15.60;65.80
41471;DHT22;27211;51.220;5.308;2023-04-03T09:55:28;15.90;68.20
41471;DHT22;27211;51.220;5.308;2023-04-03T09:58:28;16.70;64.00
41471;DHT22;27211;51.220;5.308;2023-04-03T10:01:33;16.80;64.60
41471;DHT22;27211;51.220;5.308;2023-04-03T10:06:37;16.30;58.80
41471;DHT22;27211;51.220;5.308;2023-04-03T10:09:31;16.40;55.60
41471;DHT22;27211;51.220;5.308;2023-04-03T10:12:15;16.60;55.70
41471;DHT22;27211;51.220;5.308;2023-04-03T10:15:01;16.60;55.50
41471;DHT22;27211;51.220;5.308;2023-04-03T10:18:06;15.60;57.50
41471;DHT22;27211;51.220;5.308;2023-04-03T10:23:21;15.40;57.90
41471;DHT22;27211;51.220;5.308;2023-04-03T10:28:33;16.60;55.80
41471;DHT22;27211;51.220;5.308;2023-04-03T10:37:12;17.40;53.60
41471;DHT22;27211;51.220;5.308;2023-04-03T10:39:59;16.60;53.30
41471;DHT22;27211;51.220;5.308;2023-04-03T10:45:27;16.70;54.10
41471;DHT22;27211;51.220;5.308;2023-04-03T10:51:19;17.60;52.50
41471;DHT22;27211;51.220;5.308;2023-04-03T10:58:34;17.10;49.60
41471;DHT22;27211;51.220;5.308;2023-04-03T11:01:21;16.80;50.80
41471;DHT22;27211;51.220;5.308;2023-04-03T11:04:05;17.30;52.20
41471;DHT22;27211;51.220;5.308;2023-04-03T11:06:58;16.80;50.50
41471;DHT22;27211;51.220;5.308;2023-04-03T11:09:42;17.40;52.30
41471;DHT22;27211;51.220;5.308;2023-04-03T11:14:59;18.10;49.70
41471;DHT22;27211;51.220;5.308;2023-04-03T11:17:54;18.60;50.40
41471;DHT22;27211;51.220;5.308;2023-04-03T11:20:39;17.80;50.20
41471;DHT22;27211;51.220;5.308;2023-04-03T11:23:25;17.30;50.60
41471;DHT22;27211;51.220;5.308;2023-04-03T11:26:11;16.90;50.80
41471;DHT22;27211;51.220;5.308;2023-04-03T11:29:01;17.90;51.30
41471;DHT22;27211;51.220;5.308;2023-04-03T11:32:01;19.00;51.80
41471;DHT22;27211;51.220;5.308;2023-04-03T11:34:45;18.90;49.30
41471;DHT22;27211;51.220;5.308;2023-04-03T11:37:36;19.30;49.00
41471;DHT22;27211;51.220;5.308;2023-04-03T11:40:20;19.30;49.50
41471;DHT22;27211;51.220;5.308;2023-04-03T11:43:15;18.80;48.60
41471;DHT22;27211;51.220;5.308;2023-04-03T11:45:56;18.60;49.00
41471;DHT22;27211;51.220;5.308;2023-04-03T11:48:44;19.30;49.40
41471;DHT22;27211;51.220;5.308;2023-04-03T11:53:55;19.30;48.40
41471;DHT22;27211;51.220;5.308;2023-04-03T11:56:40;19.30;48.80
41471;DHT22;27211;51.220;5.308;2023-04-03T11:59:26;18.80;49.60
41471;DHT22;27211;51.220;5.308;2023-04-03T12:02:33;18.60;46.70
41471;DHT22;27211;51.220;5.308;2023-04-03T12:07:42;19.30;48.20
41471;DHT22;27211;51.220;5.308;2023-04-03T12:10:28;20.30;46.70
41471;DHT22;27211;51.220;5.308;2023-04-03T12:13:15;20.60;46.30
41471;DHT22;27211;51.220;5.308;2023-04-03T12:15:59;20.60;44.60
41471;DHT22;27211;51.220;5.308;2023-04-03T12:21:14;20.00;43.70
41471;DHT22;27211;51.220;5.308;2023-04-03T12:26:34;19.60;44.20
41471;DHT22;27211;51.220;5.308;2023-04-03T12:29:20;19.50;43.60
41471;DHT22;27211;51.220;5.308;2023-04-03T12:32:12;18.80;45.30
41471;DHT22;27211;51.220;5.308;2023-04-03T12:40:07;20.30;44.30
41471;DHT22;27211;51.220;5.308;2023-04-03T12:48:31;20.40;43.60
41471;DHT22;27211;51.220;5.308;2023-04-03T12:51:20;20.90;44.10
41471;DHT22;27211;51.220;5.308;2023-04-03T12:54:50;20.80;43.20
41471;DHT22;27211;51.220;5.308;2023-04-03T12:56:51;20.60;42.70
41471;DHT22;27211;51.220;5.308;2023-04-03T12:59:36;20.90;43.60
41471;DHT22;27211;51.220;5.308;2023-04-03T13:02:23;20.60;42.90
41471;DHT22;27211;51.220;5.308;2023-04-03T13:05:09;21.60;42.70
41471;DHT22;27211;51.220;5.308;2023-04-03T13:07:58;21.60;40.80
41471;DHT22;27211;51.220;5.308;2023-04-03T13:14:05;20.20;41.40
41471;DHT22;27211;51.220;5.308;2023-04-03T13:16:30;20.30;43.10
41471;DHT22;27211;51.220;5.308;2023-04-03T13:19:16;20.50;41.80
41471;DHT22;27211;51.220;5.308;2023-04-03T13:22:03;19.00;42.40
41471;DHT22;27211;51.220;5.308;2023-04-03T13:24:47;19.10;42.20
41471;DHT22;27211;51.220;5.308;2023-04-03T13:27:32;19.20;41.00
41471;DHT22;27211;51.220;5.308;2023-04-03T13:30:23;19.00;41.80
41471;DHT22;27211;51.220;5.308;2023-04-03T13:33:41;19.00;42.60
41471;DHT22;27211;51.220;5.308;2023-04-03T13:36:03;19.30;43.70
41471;DHT22;27211;51.220;5.308;2023-04-03T13:38:57;19.50;42.10
41471;DHT22;27211;51.220;5.308;2023-04-03T13:41:34;19.60;42.10
41471;DHT22;27211;51.220;5.308;2023-04-03T13:44:26;19.80;42.90
41471;DHT22;27211;51.220;5.308;2023-04-03T13:49:35;20.60;41.70
41471;DHT22;27211;51.220;5.308;2023-04-03T13:52:30;19.50;42.90
41471;DHT22;27211;51.220;5.308;2023-04-03T13:57:48;19.40;41.70
41471;DHT22;27211;51.220;5.308;2023-04-03T14:03:13;18.50;42.50
41471;DHT22;27211;51.220;5.308;2023-04-03T14:05:57;19.10;42.80
41471;DHT22;27211;51.220;5.308;2023-04-03T14:08:43;19.80;43.00
41471;DHT22;27211;51.220;5.308;2023-04-03T14:11:30;19.90;42.40
41471;DHT22;27211;51.220;5.308;2023-04-03T14:14:17;19.10;42.00
41471;DHT22;27211;51.220;5.308;2023-04-03T14:17:01;18.80;44.50
41471;DHT22;27211;51.220;5.308;2023-04-03T14:19:45;18.60;43.20
41471;DHT22;27211;51.220;5.308;2023-04-03T14:22:31;19.30;43.00
41471;DHT22;27211;51.220;5.308;2023-04-03T14:25:17;19.00;44.00
41471;DHT22;27211;51.220;5.308;2023-04-03T14:28:19;18.60;43.70
41471;DHT22;27211;51.220;5.308;2023-04-03T14:31:05;18.10;43.70
41471;DHT22;27211;51.220;5.308;2023-04-03T14:33:51;19.00;44.30
41471;DHT22;27211;51.220;5.308;2023-04-03T14:36:37;19.20;45.00
41471;DHT22;27211;51.220;5.308;2023-04-03T14:39:22;19.30;44.20
41471;DHT22;27211;51.220;5.308;2023-04-03T14:42:14;19.00;43.90
41471;DHT22;27211;51.220;5.308;2023-04-03T14:44:59;19.10;43.80
41471;DHT22;27211;51.220;5.308;2023-04-03T14:47:52;19.30;44.90
41471;DHT22;27211;51.220;5.308;2023-04-03T14:50:36;18.90;44.60
41471;DHT22;27211;51.220;5.308;2023-04-03T14:53:22;18.10;45.70
41471;DHT22;27211;51.220;5.308;2023-04-03T14:56:14;18.50;45.80
41471;DHT22;27211;51.220;5.308;2023-04-03T14:59:00;17.60;46.20
41471;DHT22;27211;51.220;5.308;2023-04-03T15:01:46;17.80;46.10
41471;DHT22;27211;51.220;5.308;2023-04-03T15:04:32;18.40;46.50
41471;DHT22;27211;51.220;5.308;2023-04-03T15:07:18;17.80;46.10
41471;DHT22;27211;51.220;5.308;2023-04-03T15:12:45;17.30;47.10
41471;DHT22;27211;51.220;5.308;2023-04-03T15:15:30;17.40;47.40
41471;DHT22;27211;51.220;5.308;2023-04-03T15:18:22;17.50;47.60
41471;DHT22;27211;51.220;5.308;2023-04-03T15:21:07;18.10;47.60
41471;DHT22;27211;51.220;5.308;2023-04-03T15:23:52;19.00;46.80
41471;DHT22;27211;51.220;5.308;2023-04-03T15:26:38;19.00;45.90
41471;DHT22;27211;51.220;5.308;2023-04-03T15:29:23;18.20;46.20
41471;DHT22;27211;51.220;5.308;2023-04-03T15:32:09;18.00;46.60
41471;DHT22;27211;51.220;5.308;2023-04-03T15:34:55;17.50;46.90
41471;DHT22;27211;51.220;5.308;2023-04-03T15:37:40;16.90;47.20
41471;DHT22;27211;51.220;5.308;2023-04-03T15:40:26;16.70;48.10
41471;DHT22;27211;51.220;5.308;2023-04-03T15:43:12;17.20;47.70
41471;DHT22;27211;51.220;5.308;2023-04-03T15:45:59;16.30;48.60
41471;DHT22;27211;51.220;5.308;2023-04-03T15:48:44;16.70;48.60
41471;DHT22;27211;51.220;5.308;2023-04-03T15:51:30;16.70;48.80
41471;DHT22;27211;51.220;5.308;2023-04-03T15:54:16;16.00;49.50
41471;DHT22;27211;51.220;5.308;2023-04-03T15:57:01;15.00;50.80
41471;DHT22;27211;51.220;5.308;2023-04-03T15:59:51;13.50;51.60
41471;DHT22;27211;51.220;5.308;2023-04-03T16:02:36;12.80;53.80
41471;DHT22;27211;51.220;5.308;2023-04-03T16:05:22;12.60;54.80
41471;DHT22;27211;51.220;5.308;2023-04-03T16:08:08;12.70;54.70
41471;DHT22;27211;51.220;5.308;2023-04-03T16:10:53;12.60;55.00
41471;DHT22;27211;51.220;5.308;2023-04-03T16:13:39;12.30;55.10
41471;DHT22;27211;51.220;5.308;2023-04-03T16:16:27;12.20;54.70
41471;DHT22;27211;51.220;5.308;2023-04-03T16:19:10;11.90;55.50
41471;DHT22;27211;51.220;5.308;2023-04-03T16:21:55;11.90;55.80
41471;DHT22;27211;51.220;5.308;2023-04-03T16:24:41;11.60;55.90
41471;DHT22;27211;51.220;5.308;2023-04-03T16:27:26;11.40;56.40
41471;DHT22;27211;51.220;5.308;2023-04-03T16:30:12;11.20;56.40
41471;DHT22;27211;51.220;5.308;2023-04-03T16:32:57;11.20;57.50
41471;DHT22;27211;51.220;5.308;2023-04-03T16:35:46;11.30;57.20
41471;DHT22;27211;51.220;5.308;2023-04-03T16:38:32;11.10;57.30
41471;DHT22;27211;51.220;5.308;2023-04-03T16:41:17;11.00;58.20
41471;DHT22;27211;51.220;5.308;2023-04-03T16:44:03;11.00;58.80
41471;DHT22;27211;51.220;5.308;2023-04-03T16:46:49;11.00;58.80
41471;DHT22;27211;51.220;5.308;2023-04-03T16:49:38;11.00;59.30
41471;DHT22;27211;51.220;5.308;2023-04-03T16:52:24;10.90;59.70
41471;DHT22;27211;51.220;5.308;2023-04-03T16:55:12;10.70;59.40
41471;DHT22;27211;51.220;5.308;2023-04-03T16:57:59;10.30;60.00
41471;DHT22;27211;51.220;5.308;2023-04-03T17:00:45;10.30;60.80
41471;DHT22;27211;51.220;5.308;2023-04-03T17:03:30;10.40;61.10
41471;DHT22;27211;51.220;5.308;2023-04-03T17:06:17;10.40;61.10
41471;DHT22;27211;51.220;5.308;2023-04-03T17:09:01;10.50;61.00
41471;DHT22;27211;51.220;5.308;2023-04-03T17:11:48;10.60;61.50
41471;DHT22;27211;51.220;5.308;2023-04-03T17:14:33;10.60;60.80
41471;DHT22;27211;51.220;5.308;2023-04-03T17:17:20;10.70;61.20
41471;DHT22;27211;51.220;5.308;2023-04-03T17:20:04;10.40;61.10
41471;DHT22;27211;51.220;5.308;2023-04-03T17:22:50;10.10;61.50
41471;DHT22;27211;51.220;5.308;2023-04-03T17:25:35;10.00;62.60
41471;DHT22;27211;51.220;5.308;2023-04-03T17:28:21;10.10;62.20
41471;DHT22;27211;51.220;5.308;2023-04-03T17:31:10;10.00;62.80
41471;DHT22;27211;51.220;5.308;2023-04-03T17:34:03;9.90;63.50
41471;DHT22;27211;51.220;5.308;2023-04-03T17:36:51;9.90;63.30
41471;DHT22;27211;51.220;5.308;2023-04-03T17:39:52;9.90;63.30
41471;DHT22;27211;51.220;5.308;2023-04-03T17:42:39;9.60;64.30
41471;DHT22;27211;51.220;5.308;2023-04-03T17:45:24;9.70;64.20
41471;DHT22;27211;51.220;5.308;2023-04-03T17:48:10;9.70;64.30
41471;DHT22;27211;51.220;5.308;2023-04-03T17:50:57;9.70;65.00
41471;DHT22;27211;51.220;5.308;2023-04-03T17:53:53;9.50;64.20
41471;DHT22;27211;51.220;5.308;2023-04-03T17:56:41;9.40;64.80
41471;DHT22;27211;51.220;5.308;2023-04-03T17:59:33;9.40;65.40
41471;DHT22;27211;51.220;5.308;2023-04-03T18:02:22;9.30;65.40
41471;DHT22;27211;51.220;5.308;2023-04-03T18:05:06;9.30;65.40
41471;DHT22;27211;51.220;5.308;2023-04-03T18:07:52;9.30;66.40
41471;DHT22;27211;51.220;5.308;2023-04-03T18:10:43;9.10;67.40
41471;DHT22;27211;51.220;5.308;2023-04-03T18:13:26;9.20;67.50
41471;DHT22;27211;51.220;5.308;2023-04-03T18:16:12;9.20;67.20
41471;DHT22;27211;51.220;5.308;2023-04-03T18:18:58;9.20;67.70
41471;DHT22;27211;51.220;5.308;2023-04-03T18:21:43;9.10;67.80
41471;DHT22;27211;51.220;5.308;2023-04-03T18:24:31;9.10;68.10
41471;DHT22;27211;51.220;5.308;2023-04-03T18:27:18;9.00;68.90
41471;DHT22;27211;51.220;5.308;2023-04-03T18:30:06;9.00;69.60
41471;DHT22;27211;51.220;5.308;2023-04-03T18:32:51;8.90;69.90
41471;DHT22;27211;51.220;5.308;2023-04-03T18:35:36;8.70;70.90
41471;DHT22;27211;51.220;5.308;2023-04-03T18:38:22;8.70;71.90
41471;DHT22;27211;51.220;5.308;2023-04-03T18:41:08;8.80;71.80
41471;DHT22;27211;51.220;5.308;2023-04-03T18:43:55;8.60;72.90
41471;DHT22;27211;51.220;5.308;2023-04-03T18:46:40;8.60;73.20
41471;DHT22;27211;51.220;5.308;2023-04-03T18:49:27;8.60;73.60
41471;DHT22;27211;51.220;5.308;2023-04-03T18:52:11;8.50;73.70
41471;DHT22;27211;51.220;5.308;2023-04-03T18:54:56;8.50;74.10
41471;DHT22;27211;51.220;5.308;2023-04-03T18:57:43;8.30;75.40
41471;DHT22;27211;51.220;5.308;2023-04-03T19:00:28;8.40;75.60
41471;DHT22;27211;51.220;5.308;2023-04-03T19:03:14;8.30;76.00